Time;durP1;ratioP1;P1;durP2;ratioP2;P2;SDS_P1;SDS_P2;PMS_P1;PMS_P2;Temp;Humidity;BMP_temperature;BMP_pressure;BME280_temperature;BME280_humidity;BME280_pressure;Samples;Min_cycle;Max_cycle;Signal;HPM_P1;HPM_P2
2022/09/26 00:00:10;;;;;;;4.65;2.95;;;;;;;12.50;60.04;99936.25;4901989;28;127558;-67
2022/09/26 00:02:37;;;;;;;4.93;3.25;;;;;;;12.49;60.37;99926.50;4933275;28;102724;-67
2022/09/26 00:05:03;;;;;;;4.90;3.17;;;;;;;12.49;60.27;99925.72;4940542;28;97511;-68
2022/09/26 00:07:29;;;;;;;4.90;2.80;;;;;;;12.49;60.21;99921.09;4936285;28;98021;-67
2022/09/26 00:09:56;;;;;;;4.85;2.85;;;;;;;12.49;60.44;99920.31;4906146;28;97743;-67
2022/09/26 00:12:22;;;;;;;6.20;2.92;;;;;;;12.47;60.36;99920.59;4908816;28;99289;-67
2022/09/26 00:14:48;;;;;;;4.85;2.92;;;;;;;12.46;60.29;99929.00;4936728;28;97868;-66
2022/09/26 00:17:14;;;;;;;5.70;2.58;;;;;;;12.47;60.29;99928.72;4908746;28;97940;-67
2022/09/26 00:19:41;;;;;;;5.68;3.08;;;;;;;12.45;60.43;99933.59;4920479;28;97987;-68
2022/09/26 00:22:07;;;;;;;6.20;3.13;;;;;;;12.46;60.34;99932.53;4924874;28;97560;-68
2022/09/26 00:24:33;;;;;;;5.10;2.97;;;;;;;12.44;60.40;99923.88;4916730;28;97461;-68
2022/09/26 00:27:00;;;;;;;6.50;3.05;;;;;;;12.42;60.52;99923.38;4920658;28;98068;-67
2022/09/26 00:29:26;;;;;;;5.88;2.88;;;;;;;12.41;60.92;99918.25;4920909;28;100106;-67
2022/09/26 00:31:52;;;;;;;6.05;3.08;;;;;;;12.41;60.65;99919.06;4915574;28;118896;-67
2022/09/26 00:34:19;;;;;;;4.72;2.80;;;;;;;12.41;60.63;99916.34;4913829;28;97450;-66
2022/09/26 00:36:45;;;;;;;8.80;3.67;;;;;;;12.41;60.58;99920.97;4935184;28;98014;-66
2022/09/26 00:39:13;;;;;;;6.15;3.05;;;;;;;12.41;60.92;99924.47;4941152;28;98413;-67
2022/09/26 00:41:39;;;;;;;5.40;2.72;;;;;;;12.41;60.83;99920.97;4916909;28;97545;-67
2022/09/26 00:44:54;;;;;;;6.38;3.40;;;;;;;12.39;60.27;99921.25;4937437;28;97205;-66
2022/09/26 00:47:45;;;;;;;6.70;3.13;;;;;;;12.40;60.31;99914.75;4945609;28;97448;-67
2022/09/26 00:50:22;;;;;;;5.90;3.03;;;;;;;12.42;60.57;99915.28;4914945;28;97785;-68
2022/09/26 00:52:51;;;;;;;7.72;3.05;;;;;;;12.44;60.70;99917.69;4932578;28;97272;-67
2022/09/26 00:55:19;;;;;;;5.97;2.97;;;;;;;12.44;60.87;99915.78;4910060;28;97382;-67
2022/09/26 00:57:54;;;;;;;6.10;3.10;;;;;;;12.44;60.97;99902.25;4912491;28;97742;-68
2022/09/26 01:00:22;;;;;;;5.60;3.47;;;;;;;12.47;60.80;99909.78;4902475;28;99612;-66
2022/09/26 01:02:48;;;;;;;6.05;3.17;;;;;;;12.47;60.66;99904.38;4922284;28;98964;-68
2022/09/26 01:05:16;;;;;;;5.55;3.20;;;;;;;12.50;61.04;99911.13;4922021;28;109652;-66
2022/09/26 01:07:42;;;;;;;4.80;2.97;;;;;;;12.50;61.13;99903.00;4921065;28;97735;-66
2022/09/26 01:10:09;;;;;;;5.88;3.50;;;;;;;12.50;61.25;99903.00;4915861;28;97983;-68
2022/09/26 01:12:37;;;;;;;5.30;3.25;;;;;;;12.49;61.21;99902.19;4918339;28;97562;-67
2022/09/26 01:15:05;;;;;;;5.97;3.55;;;;;;;12.49;61.34;99895.97;4921531;28;97690;-66
2022/09/26 01:17:31;;;;;;;6.10;3.25;;;;;;;12.48;61.24;99900.56;4930323;28;97689;-68
2022/09/26 01:20:02;;;;;;;6.43;3.50;;;;;;;12.48;61.33;99899.78;4912172;28;129532;-67
2022/09/26 01:22:53;;;;;;;5.38;2.97;;;;;;;12.46;61.19;99894.69;4925373;28;99090;-66
2022/09/26 01:26:15;;;;;;;5.45;3.00;;;;;;;12.47;60.83;99892.78;4943243;28;97554;-68
2022/09/26 01:29:19;;;;;;;6.15;3.22;;;;;;;12.47;60.71;99892.78;4944191;28;99892;-67
2022/09/26 01:35:14;;;;;;;7.05;2.53;;;;;;;12.46;61.02;99889.28;4960847;28;97552;-68
2022/09/26 01:38:19;;;;;;;7.30;3.33;;;;;;;12.47;60.94;99887.38;4933052;28;98291;-67
2022/09/26 01:41:23;;;;;;;5.07;2.63;;;;;;;12.49;61.10;99885.16;4927335;28;98384;-66
2022/09/26 01:44:35;;;;;;;4.72;2.70;;;;;;;12.49;61.08;99879.75;4931281;28;97756;-67
2022/09/26 01:47:08;;;;;;;5.28;2.88;;;;;;;12.49;61.34;99880.53;4956717;28;97917;-66
2022/09/26 01:49:48;;;;;;;5.70;2.97;;;;;;;12.48;61.01;99881.66;4924780;28;97808;-66
2022/09/26 01:52:36;;;;;;;4.45;2.58;;;;;;;12.49;61.39;99883.25;4929288;28;97671;-66
2022/09/26 01:55:23;;;;;;;7.20;2.72;;;;;;;12.52;61.17;99884.56;4969215;28;97596;-68
2022/09/26 01:58:09;;;;;;;5.20;2.33;;;;;;;12.51;61.32;99891.09;4913078;28;98769;-66
2022/09/26 02:00:36;;;;;;;5.00;2.40;;;;;;;12.56;61.75;99890.19;4928413;28;97698;-67
2022/09/26 02:03:03;;;;;;;4.68;2.40;;;;;;;12.59;61.80;99886.91;4921122;28;98998;-67
2022/09/26 02:05:37;;;;;;;5.38;1.95;;;;;;;12.60;61.53;99886.59;4915645;28;99647;-67
2022/09/26 02:08:13;;;;;;;2.83;1.50;;;;;;;12.63;61.67;99883.31;4935550;28;99034;-68
2022/09/26 02:10:47;;;;;;;5.15;1.50;;;;;;;12.64;61.23;99879.50;4934685;28;97721;-68
2022/09/26 02:13:21;;;;;;;3.90;1.25;;;;;;;12.66;61.72;99873.84;4908238;28;97682;-67
2022/09/26 02:15:50;;;;;;;3.58;1.08;;;;;;;12.70;61.75;99869.44;4924807;28;103774;-68
2022/09/26 02:18:30;;;;;;;2.03;1.00;;;;;;;12.70;61.49;99864.81;4913835;28;97655;-67
2022/09/26 02:21:08;;;;;;;3.42;1.50;;;;;;;12.70;61.42;99862.13;4904815;28;97527;-68
2022/09/26 02:23:34;;;;;;;2.40;1.05;;;;;;;12.72;61.73;99859.91;4893281;28;98015;-68
2022/09/26 02:26:01;;;;;;;4.40;1.05;;;;;;;12.74;61.74;99854.22;4891238;28;98152;-67
2022/09/26 02:28:27;;;;;;;4.30;1.10;;;;;;;12.75;62.00;99851.22;4918406;28;97660;-67
2022/09/26 02:30:53;;;;;;;2.88;1.10;;;;;;;12.80;61.88;99842.19;4891241;28;97569;-67
2022/09/26 02:33:20;;;;;;;3.53;1.20;;;;;;;12.87;61.52;99845.34;4915960;28;97674;-68
2022/09/26 02:35:55;;;;;;;3.13;0.90;;;;;;;12.95;61.82;99843.84;4876964;28;97857;-67
2022/09/26 02:38:28;;;;;;;2.42;1.20;;;;;;;13.00;61.62;99849.97;4907290;28;97877;-67
2022/09/26 02:41:42;;;;;;;3.38;1.05;;;;;;;13.05;61.35;99845.56;4906065;28;97952;-66
2022/09/26 02:44:34;;;;;;;2.00;1.23;;;;;;;13.10;61.22;99853.59;4924308;28;97628;-67
2022/09/26 02:47:49;;;;;;;2.53;1.13;;;;;;;13.13;61.31;99855.72;4913452;28;102339;-67
2022/09/26 02:50:30;;;;;;;3.25;1.65;;;;;;;13.15;61.64;99848.88;4939876;28;98210;-68
2022/09/26 02:53:14;;;;;;;3.08;1.13;;;;;;;13.18;61.66;99848.28;4925870;28;97935;-67
2022/09/26 02:55:59;;;;;;;2.95;1.10;;;;;;;13.20;60.96;99842.56;4937011;28;113065;-67
2022/09/26 02:58:44;;;;;;;2.70;1.20;;;;;;;13.22;61.15;99843.09;4931335;28;97469;-68
2022/09/26 03:02:01;;;;;;;3.03;1.23;;;;;;;13.20;61.06;99850.69;4940100;28;97116;-67
2022/09/26 03:04:52;;;;;;;2.15;0.85;;;;;;;13.19;61.01;99841.78;4925767;28;97789;-68
2022/09/26 03:07:31;;;;;;;2.63;0.80;;;;;;;13.22;60.91;99837.66;4898985;28;97658;-68
2022/09/26 03:09:57;;;;;;;2.25;0.75;;;;;;;13.20;61.48;99834.44;4901029;28;99281;-67
2022/09/26 03:12:24;;;;;;;1.67;0.77;;;;;;;13.21;61.08;99838.78;4897931;28;97730;-68
2022/09/26 03:14:52;;;;;;;1.20;0.47;;;;;;;13.19;61.17;99849.88;4884451;28;99216;-68
2022/09/26 03:17:21;;;;;;;3.22;0.57;;;;;;;13.17;61.06;99856.72;4894471;28;97880;-68
2022/09/26 03:20:04;;;;;;;1.52;0.50;;;;;;;13.18;61.11;99855.63;4882071;28;97787;-68
2022/09/26 03:22:30;;;;;;;1.25;0.38;;;;;;;13.15;61.59;99862.41;4939353;28;97316;-68
2022/09/26 03:25:00;;;;;;;1.10;0.30;;;;;;;13.13;61.13;99850.31;4902852;28;97693;-67
2022/09/26 03:27:26;;;;;;;1.58;0.40;;;;;;;13.09;61.03;99860.13;4911835;28;97940;-67
2022/09/26 03:29:53;;;;;;;1.05;0.40;;;;;;;13.05;61.51;99854.50;4903285;28;100421;-69
2022/09/26 03:32:19;;;;;;;2.15;0.28;;;;;;;13.02;61.42;99841.56;4915627;28;127457;-68
2022/09/26 03:34:45;;;;;;;1.50;0.30;;;;;;;12.98;61.37;99849.47;4934545;28;98637;-68
2022/09/26 03:37:12;;;;;;;1.13;0.30;;;;;;;12.96;61.49;99840.03;4913251;28;99895;-67
2022/09/26 03:39:38;;;;;;;2.13;0.32;;;;;;;12.93;61.54;99846.88;4920763;28;97659;-67
2022/09/26 03:42:04;;;;;;;0.60;0.20;;;;;;;12.91;61.55;99849.03;4920639;28;127593;-68
2022/09/26 03:44:30;;;;;;;1.45;0.47;;;;;;;12.86;61.82;99849.16;4921612;28;97835;-67
2022/09/26 03:46:57;;;;;;;4.25;0.40;;;;;;;12.84;61.64;99845.13;4917912;28;99946;-68
2022/09/26 03:49:23;;;;;;;0.68;0.20;;;;;;;12.81;61.69;99843.84;4913408;28;97750;-68
2022/09/26 03:51:49;;;;;;;1.10;0.30;;;;;;;12.78;61.74;99839.00;4906104;28;99223;-68
2022/09/26 03:54:15;;;;;;;1.35;0.30;;;;;;;12.73;61.97;99842.63;4926804;28;97689;-67
2022/09/26 03:56:44;;;;;;;0.93;0.30;;;;;;;12.73;61.73;99834.50;4893307;28;126779;-68
2022/09/26 03:59:10;;;;;;;1.27;0.30;;;;;;;12.71;61.87;99835.88;4906106;28;97645;-67
2022/09/26 04:01:37;;;;;;;1.67;0.30;;;;;;;12.68;61.69;99828.34;4920206;28;127836;-69
2022/09/26 04:04:03;;;;;;;1.35;0.20;;;;;;;12.66;61.58;99830.56;4904983;28;97501;-66
2022/09/26 04:06:30;;;;;;;1.10;0.30;;;;;;;12.63;62.38;99823.03;4930345;28;97641;-67
2022/09/26 04:08:56;;;;;;;1.05;0.17;;;;;;;12.61;61.86;99834.13;4906713;28;97880;-67
2022/09/26 04:11:25;;;;;;;0.95;0.32;;;;;;;12.58;61.88;99826.63;4948241;28;122167;-68
2022/09/26 04:13:52;;;;;;;1.00;0.25;;;;;;;12.55;61.96;99827.22;4918490;28;98020;-67
2022/09/26 04:16:19;;;;;;;1.80;0.28;;;;;;;12.51;61.96;99829.72;4926596;28;98191;-68
2022/09/26 04:18:47;;;;;;;2.42;0.20;;;;;;;12.49;62.18;99829.19;4937490;28;98487;-68
2022/09/26 04:21:13;;;;;;;1.00;0.20;;;;;;;12.46;62.17;99826.31;4939164;28;99318;-67
2022/09/26 04:23:41;;;;;;;1.00;0.30;;;;;;;12.43;62.46;99829.59;4940897;28;97721;-68
2022/09/26 04:26:17;;;;;;;1.77;0.30;;;;;;;12.40;62.08;99825.56;4917809;28;97638;-66
2022/09/26 04:28:44;;;;;;;2.42;0.20;;;;;;;12.37;62.37;99820.75;4920238;28;97360;-68
2022/09/26 04:31:11;;;;;;;0.52;0.15;;;;;;;12.35;62.01;99816.75;4923461;28;97121;-68
2022/09/26 04:33:38;;;;;;;1.13;0.15;;;;;;;12.27;62.46;99813.59;4925175;28;97797;-68
2022/09/26 04:36:08;;;;;;;0.70;0.20;;;;;;;12.25;62.38;99820.38;4924130;28;97720;-68
2022/09/26 04:38:35;;;;;;;0.75;0.20;;;;;;;12.18;62.32;99818.06;4945010;28;97517;-68
2022/09/26 04:41:17;;;;;;;1.60;0.20;;;;;;;12.11;62.38;99819.53;4916444;28;98755;-68
2022/09/26 04:43:45;;;;;;;0.95;0.22;;;;;;;12.07;62.66;99815.81;4949090;28;97043;-66
2022/09/26 04:46:17;;;;;;;1.30;0.30;;;;;;;12.01;62.33;99802.38;4920602;28;99388;-69
2022/09/26 04:48:45;;;;;;;1.23;0.30;;;;;;;11.96;62.74;99805.16;4912341;28;97666;-69
2022/09/26 04:51:14;;;;;;;1.38;0.30;;;;;;;11.92;62.86;99804.13;4920562;28;97959;-69
2022/09/26 04:53:44;;;;;;;1.67;0.30;;;;;;;11.87;62.82;99795.28;4932268;28;97741;-69
2022/09/26 04:56:12;;;;;;;1.42;0.40;;;;;;;11.80;63.04;99798.34;4923423;28;98424;-69
2022/09/26 04:58:42;;;;;;;1.42;0.30;;;;;;;11.78;63.02;99798.59;4940267;28;97913;-69
2022/09/26 05:01:17;;;;;;;1.33;0.43;;;;;;;11.73;62.82;99798.69;4939716;28;99507;-69
2022/09/26 05:03:45;;;;;;;0.60;0.30;;;;;;;11.73;63.20;99800.59;4931658;28;97715;-69
2022/09/26 05:06:13;;;;;;;1.35;0.50;;;;;;;11.68;62.92;99806.88;4894431;28;98060;-69
2022/09/26 05:08:45;;;;;;;1.05;0.40;;;;;;;11.67;63.24;99805.25;4918367;28;97605;-69
2022/09/26 05:11:12;;;;;;;1.27;0.32;;;;;;;11.65;63.14;99812.84;4919959;28;97621;-67
2022/09/26 05:13:41;;;;;;;1.65;0.60;;;;;;;11.62;62.69;99820.72;4935697;28;97907;-67
2022/09/26 05:16:13;;;;;;;1.85;0.38;;;;;;;11.59;63.25;99819.38;4921631;28;98000;-69
2022/09/26 05:18:41;;;;;;;1.40;0.47;;;;;;;11.54;63.17;99809.44;4930716;28;97804;-69
2022/09/26 05:21:07;;;;;;;2.63;0.60;;;;;;;11.55;63.48;99807.56;4915253;28;97555;-69
2022/09/26 05:26:42;;;;;;;0.93;0.30;;;;;;;11.51;63.17;99812.75;4934983;28;97699;-69
2022/09/26 05:29:10;;;;;;;1.65;0.50;;;;;;;11.51;63.15;99812.75;4953448;28;97907;-69
2022/09/26 05:31:37;;;;;;;2.70;0.52;;;;;;;11.50;63.24;99810.31;4918547;28;97739;-69
2022/09/26 05:34:10;;;;;;;1.35;0.38;;;;;;;11.49;63.04;99812.22;4906344;28;98214;-69
2022/09/26 05:36:38;;;;;;;1.90;0.40;;;;;;;11.47;63.53;99803.59;4930933;28;97834;-69
2022/09/26 05:40:55;;;;;;;1.75;0.35;;;;;;;11.48;63.41;99810.63;4922556;28;97799;-69
2022/09/26 05:41:54;;;;;;;1.67;0.40;;;;;;;11.49;63.02;99806.81;4956568;28;97381;-69
2022/09/26 05:44:23;;;;;;;1.40;0.38;;;;;;;11.51;62.92;99812.75;4933673;28;98259;-69
2022/09/26 05:46:51;;;;;;;1.88;0.32;;;;;;;11.53;63.33;99804.34;4935064;28;98133;-69
2022/09/26 05:49:17;;;;;;;0.80;0.30;;;;;;;11.51;63.48;99814.63;4924859;28;97653;-69
2022/09/26 05:51:45;;;;;;;1.13;0.30;;;;;;;11.50;63.20;99819.22;4936770;28;98804;-69
2022/09/26 05:54:12;;;;;;;1.25;0.40;;;;;;;11.51;63.29;99820.84;4952266;28;97856;-69
2022/09/26 05:56:38;;;;;;;1.35;0.55;;;;;;;11.54;63.29;99820.25;4923852;28;98330;-69
2022/09/26 05:59:06;;;;;;;2.17;0.45;;;;;;;11.55;63.23;99813.78;4925052;28;97739;-69
2022/09/26 06:01:32;;;;;;;2.00;0.45;;;;;;;11.58;63.43;99815.09;4929141;28;97740;-69
2022/09/26 06:03:59;;;;;;;1.23;0.30;;;;;;;11.62;63.56;99804.50;4925700;28;99203;-69
2022/09/26 06:06:28;;;;;;;0.73;0.30;;;;;;;11.64;63.21;99811.25;4938854;28;97357;-69
2022/09/26 06:08:55;;;;;;;0.57;0.28;;;;;;;11.62;63.32;99805.31;4933783;28;97890;-69
2022/09/26 06:11:29;;;;;;;1.42;0.40;;;;;;;11.60;63.42;99807.50;4920594;28;97541;-69
2022/09/26 06:13:57;;;;;;;1.33;0.30;;;;;;;11.60;63.23;99812.09;4937515;28;97090;-69
2022/09/26 06:16:24;;;;;;;1.25;0.30;;;;;;;11.60;63.43;99814.81;4919448;28;98091;-69
2022/09/26 06:18:54;;;;;;;1.83;0.40;;;;;;;11.61;63.25;99808.31;4935652;28;99640;-69
2022/09/26 06:21:20;;;;;;;0.88;0.40;;;;;;;11.60;63.18;99809.41;4908534;28;98586;-69
2022/09/26 06:23:48;;;;;;;1.17;0.40;;;;;;;11.58;63.53;99812.38;4925924;28;97522;-69
2022/09/26 06:26:27;;;;;;;2.03;0.38;;;;;;;11.54;63.14;99805.97;4920408;28;97559;-69
2022/09/26 06:28:59;;;;;;;1.10;0.50;;;;;;;11.53;63.21;99812.47;4924979;28;98472;-69
2022/09/26 06:31:26;;;;;;;1.20;0.30;;;;;;;11.55;63.39;99818.34;4906656;28;97699;-69
2022/09/26 06:33:54;;;;;;;2.45;0.55;;;;;;;11.58;63.87;99819.69;4941621;28;97801;-69
2022/09/26 06:36:22;;;;;;;1.80;0.55;;;;;;;11.59;63.65;99816.69;4942112;28;99450;-69
2022/09/26 06:38:48;;;;;;;1.95;0.20;;;;;;;11.60;63.59;99818.31;4923101;28;98168;-69
2022/09/26 06:41:15;;;;;;;1.63;0.45;;;;;;;11.63;63.54;99808.81;4940280;28;127850;-69
2022/09/26 06:43:46;;;;;;;1.05;0.20;;;;;;;11.62;63.65;99810.72;4924205;28;97577;-69
2022/09/26 06:46:16;;;;;;;2.20;0.35;;;;;;;11.64;63.54;99813.13;4921194;28;97848;-69
2022/09/26 06:48:43;;;;;;;0.70;0.20;;;;;;;11.61;63.85;99811.81;4936733;28;98345;-69
2022/09/26 06:51:12;;;;;;;1.17;0.30;;;;;;;11.64;63.80;99802.34;4939163;28;98057;-69
2022/09/26 06:53:44;;;;;;;1.20;0.35;;;;;;;11.70;63.42;99801.97;4922766;28;97819;-69
2022/09/26 06:56:12;;;;;;;2.05;0.63;;;;;;;11.79;63.51;99802.94;4904211;28;97682;-69
2022/09/26 06:58:38;;;;;;;1.15;0.40;;;;;;;11.87;63.50;99809.63;4920961;28;97734;-69
2022/09/26 07:01:06;;;;;;;0.98;0.40;;;;;;;11.94;63.54;99801.94;4921217;28;130095;-69
2022/09/26 07:03:33;;;;;;;3.88;0.57;;;;;;;12.04;63.28;99798.28;4924111;28;97713;-69
2022/09/26 07:05:59;;;;;;;1.10;0.40;;;;;;;12.16;63.17;99792.44;4942862;28;97624;-69
2022/09/26 07:08:29;;;;;;;1.25;0.20;;;;;;;12.23;63.36;99790.97;4932053;28;97493;-69
2022/09/26 07:11:00;;;;;;;2.90;0.40;;;;;;;12.27;62.72;99783.88;4941373;28;97906;-69
2022/09/26 07:13:28;;;;;;;1.90;0.52;;;;;;;12.34;63.11;99788.91;4919356;28;97691;-69
2022/09/26 07:15:57;;;;;;;0.95;0.40;;;;;;;12.50;62.75;99792.97;4898557;28;99251;-69
2022/09/26 07:18:24;;;;;;;1.77;0.50;;;;;;;12.74;62.81;99784.72;4948170;28;98093;-69
2022/09/26 07:20:52;;;;;;;1.45;0.43;;;;;;;13.08;61.94;99780.81;4907063;28;97357;-69
2022/09/26 07:23:19;;;;;;;1.48;0.50;;;;;;;13.25;61.79;99781.06;4901664;28;97567;-69
2022/09/26 07:25:47;;;;;;;2.15;0.73;;;;;;;13.36;62.05;99773.56;4917559;28;97581;-69
2022/09/26 07:28:15;;;;;;;3.38;0.90;;;;;;;13.44;61.54;99770.13;4921689;28;97653;-69
2022/09/26 07:30:42;;;;;;;2.30;1.00;;;;;;;13.55;61.57;99764.50;4950968;28;97402;-69
2022/09/26 07:33:09;;;;;;;4.82;1.40;;;;;;;13.64;61.70;99765.41;4920573;28;97819;-69
2022/09/26 07:35:37;;;;;;;5.28;1.98;;;;;;;13.70;61.73;99772.28;4926073;28;101879;-69
2022/09/26 07:38:04;;;;;;;4.05;1.13;;;;;;;13.69;61.33;99776.91;4929986;28;97803;-67
2022/09/26 07:40:31;;;;;;;2.30;1.00;;;;;;;13.85;61.57;99776.56;4930870;28;97576;-68
2022/09/26 07:43:01;;;;;;;1.67;0.75;;;;;;;14.03;60.81;99781.03;4900013;28;97562;-68
2022/09/26 07:50:58;;;;;;;3.13;0.82;;;;;;;14.54;60.65;99773.59;4925031;28;97527;-67
2022/09/26 07:53:28;;;;;;;2.30;0.60;;;;;;;14.69;59.97;99771.28;4909874;28;97604;-68
2022/09/26 07:56:10;;;;;;;1.38;0.50;;;;;;;14.87;59.77;99763.25;4909589;28;97674;-68
2022/09/26 07:58:41;;;;;;;1.92;0.57;;;;;;;15.09;59.57;99765.91;4907021;28;99762;-68
2022/09/26 08:01:14;;;;;;;2.15;0.40;;;;;;;15.31;59.28;99772.34;4952227;28;97387;-69
2022/09/26 08:03:42;;;;;;;1.60;0.50;;;;;;;15.56;58.72;99762.63;4906565;28;97007;-67
2022/09/26 08:06:08;;;;;;;1.00;0.40;;;;;;;15.89;58.33;99765.75;4956404;28;99664;-67
2022/09/26 08:08:34;;;;;;;1.85;0.30;;;;;;;16.34;57.75;99765.41;4924473;28;100834;-67
2022/09/26 08:11:00;;;;;;;1.42;0.30;;;;;;;16.71;56.94;99763.09;4917367;28;119488;-68
2022/09/26 08:13:28;;;;;;;2.40;0.32;;;;;;;17.00;56.52;99767.81;4920750;28;97698;-67
2022/09/26 08:16:02;;;;;;;1.25;0.43;;;;;;;17.48;55.94;99755.69;4909463;28;97734;-68
2022/09/26 08:18:31;;;;;;;0.77;0.28;;;;;;;18.63;53.77;99759.56;4902901;28;97530;-69
2022/09/26 08:20:57;;;;;;;0.60;0.20;;;;;;;21.69;48.03;99765.03;4930541;28;97130;-67
2022/09/26 08:23:24;;;;;;;0.95;0.20;;;;;;;23.59;45.02;99777.53;4914371;28;103811;-69
2022/09/26 08:25:51;;;;;;;0.65;0.20;;;;;;;25.20;43.22;99780.16;4916941;28;97647;-70
2022/09/26 08:28:17;;;;;;;0.65;0.20;;;;;;;26.17;42.31;99776.78;4921462;28;97330;-68
2022/09/26 08:30:44;;;;;;;1.20;0.30;;;;;;;26.36;42.45;99780.38;4928564;28;97640;-69
2022/09/26 08:33:11;;;;;;;0.82;0.30;;;;;;;26.36;42.99;99777.63;4906418;28;98676;-69
2022/09/26 08:35:37;;;;;;;2.08;0.30;;;;;;;25.77;43.98;99760.41;4907641;28;99768;-68
2022/09/26 08:38:05;;;;;;;1.17;0.38;;;;;;;25.91;43.96;99768.78;4899172;28;109857;-68
2022/09/26 08:40:56;;;;;;;1.38;0.60;;;;;;;26.02;44.81;99752.28;4911463;28;97713;-68
2022/09/26 08:43:38;;;;;;;1.10;0.40;;;;;;;26.09;44.83;99746.75;4935237;28;97958;-69
2022/09/26 08:48:48;;;;;;;1.40;0.40;;;;;;;25.80;45.46;99743.13;4957337;28;97684;-69
2022/09/26 08:51:36;;;;;;;2.10;0.68;;;;;;;25.54;44.98;99741.38;4947183;28;97388;-68
2022/09/26 08:54:12;;;;;;;1.65;0.70;;;;;;;25.43;45.32;99741.31;4943743;28;101892;-69
2022/09/26 08:56:47;;;;;;;1.08;0.40;;;;;;;24.96;45.66;99735.44;4935143;28;97768;-68
2022/09/26 08:59:38;;;;;;;1.23;0.47;;;;;;;23.73;47.87;99736.47;4916004;28;98406;-69
2022/09/26 09:02:27;;;;;;;1.80;0.47;;;;;;;22.77;48.58;99731.09;4922482;28;101688;-68
2022/09/26 09:05:16;;;;;;;2.78;0.73;;;;;;;22.43;48.12;99729.31;4930855;28;97591;-68
2022/09/26 09:07:46;;;;;;;3.25;0.50;;;;;;;22.09;48.43;99728.25;4927574;28;97547;-68
2022/09/26 09:10:17;;;;;;;3.08;0.75;;;;;;;22.30;48.17;99718.50;4923001;28;97624;-68
2022/09/26 09:13:04;;;;;;;2.30;0.93;;;;;;;22.35;47.94;99716.59;4917653;28;97266;-69
2022/09/26 09:16:14;;;;;;;2.00;0.73;;;;;;;22.55;47.90;99710.69;4955185;28;97496;-69
2022/09/26 09:19:37;;;;;;;2.10;0.80;;;;;;;22.75;47.80;99716.13;4922193;28;100576;-68
2022/09/26 09:22:03;;;;;;;;;;;;;;;23.12;47.77;99710.88;4902800;28;97039;-68
2022/09/26 09:24:42;;;;;;;1.65;0.68;;;;;;;23.42;47.55;99712.84;4937059;28;98422;-68
2022/09/26 09:27:23;;;;;;;3.22;1.20;;;;;;;23.40;46.75;99706.94;4915658;28;97618;-68
2022/09/26 09:30:21;;;;;;;2.08;0.70;;;;;;;22.83;48.11;99701.34;4926557;28;97803;-69
2022/09/26 09:32:57;;;;;;;1.60;0.70;;;;;;;22.82;48.56;99704.47;4952153;28;97515;-68
2022/09/26 09:35:53;;;;;;;1.83;0.75;;;;;;;23.47;47.02;99698.81;4939135;28;98209;-69
2022/09/26 09:38:25;;;;;;;1.63;0.63;;;;;;;23.99;46.00;99699.88;4923069;28;97882;-69
2022/09/26 09:41:14;;;;;;;0.98;0.40;;;;;;;24.30;46.03;99698.63;4937417;28;97656;-70
2022/09/26 09:43:41;;;;;;;2.35;0.70;;;;;;;24.64;44.57;99702.13;4924596;28;97837;-69
2022/09/26 09:46:27;;;;;;;1.63;0.30;;;;;;;24.12;46.13;99694.88;4962731;28;99035;-69
2022/09/26 09:49:09;;;;;;;4.97;0.30;;;;;;;23.98;45.68;99693.56;4926858;28;98135;-69
2022/09/26 09:51:53;;;;;;;0.88;0.22;;;;;;;23.65;45.24;99690.78;4937111;28;97884;-69
2022/09/26 09:54:47;;;;;;;2.00;0.30;;;;;;;24.21;44.67;99682.41;4946441;28;97717;-68
2022/09/26 09:57:53;;;;;;;1.17;0.28;;;;;;;24.28;44.90;99689.16;4950675;28;97605;-68
2022/09/26 10:00:21;;;;;;;1.65;0.30;;;;;;;24.89;42.96;99683.03;4939414;28;97567;-69
2022/09/26 10:03:26;;;;;;;1.02;0.38;;;;;;;25.65;42.66;99676.78;4903964;28;98098;-68
2022/09/26 10:05:59;;;;;;;0.85;0.32;;;;;;;26.48;40.90;99677.03;4920675;28;97665;-68
2022/09/26 10:08:52;;;;;;;1.05;0.20;;;;;;;27.45;40.63;99673.00;4940114;28;97806;-68
2022/09/26 10:11:23;;;;;;;0.77;0.30;;;;;;;28.07;39.27;99666.81;4934527;28;97571;-69
2022/09/26 10:13:55;;;;;;;1.40;0.20;;;;;;;27.15;39.75;99663.19;4937593;28;97682;-69
2022/09/26 10:16:22;;;;;;;0.90;0.30;;;;;;;25.69;41.18;99668.53;4931528;28;97622;-67
2022/09/26 10:19:05;;;;;;;1.10;0.22;;;;;;;26.01;41.42;99656.81;4916988;28;97626;-69
2022/09/26 10:21:41;;;;;;;0.35;0.10;;;;;;;27.19;39.49;99654.91;4930818;28;98543;-68
2022/09/26 10:24:47;;;;;;;0.30;0.10;;;;;;;26.83;39.30;99641.09;4929254;28;97970;-68
2022/09/26 10:27:36;;;;;;;0.40;0.10;;;;;;;27.96;37.69;99648.69;4931149;28;99815;-69
2022/09/26 10:30:24;;;;;;;0.73;0.13;;;;;;;29.11;37.60;99655.69;4923461;28;97684;-68
2022/09/26 10:32:54;;;;;;;0.55;0.10;;;;;;;30.13;36.08;99650.50;4904420;28;97739;-69
2022/09/26 10:35:43;;;;;;;0.38;0.10;;;;;;;30.86;35.14;99640.63;4916479;28;98489;-68
2022/09/26 10:38:23;;;;;;;0.38;0.10;;;;;;;32.05;35.07;99634.25;4940573;28;98357;-68
2022/09/26 10:40:53;;;;;;;0.35;0.10;;;;;;;32.49;33.22;99633.59;4925566;28;97188;-68
2022/09/26 10:43:34;;;;;;;0.40;0.00;;;;;;;32.73;34.60;99630.59;4938184;28;97622;-69
2022/09/26 10:46:14;;;;;;;0.30;0.10;;;;;;;32.86;33.15;99620.31;4914197;28;97935;-69
2022/09/26 10:48:55;;;;;;;1.38;0.28;;;;;;;32.92;33.51;99612.16;4944759;28;97715;-67
2022/09/26 10:51:28;;;;;;;1.13;0.20;;;;;;;32.97;33.11;99606.88;4904857;28;99319;-67
2022/09/26 10:54:02;;;;;;;0.47;0.10;;;;;;;33.19;32.46;99607.03;4920807;28;97771;-66
2022/09/26 10:56:29;;;;;;;0.52;0.10;;;;;;;33.60;31.23;99611.09;4915592;28;97894;-65
2022/09/26 10:58:58;;;;;;;1.77;0.20;;;;;;;34.18;30.55;99605.28;4910695;28;97899;-66
2022/09/26 11:01:30;;;;;;;0.35;0.10;;;;;;;34.78;30.67;99604.50;4920478;28;97704;-65
2022/09/26 11:04:14;;;;;;;1.35;0.32;;;;;;;35.06;30.25;99594.34;4938288;28;98333;-67
2022/09/26 11:06:45;;;;;;;0.38;0.10;;;;;;;35.15;29.58;99600.00;4922800;28;98053;-65
2022/09/26 11:09:12;;;;;;;1.35;0.10;;;;;;;35.62;28.50;99607.44;4923800;28;99618;-65
2022/09/26 11:11:40;;;;;;;0.43;0.10;;;;;;;35.93;28.09;99597.47;4923734;28;97915;-65
2022/09/26 11:14:07;;;;;;;0.30;0.10;;;;;;;35.52;28.02;99597.44;4940536;28;97405;-69
2022/09/26 11:16:55;;;;;;;0.30;0.10;;;;;;;34.32;30.11;99583.69;4909116;28;97710;-69
2022/09/26 11:19:26;;;;;;;1.00;0.10;;;;;;;32.86;30.51;99581.25;4916584;28;97901;-69
2022/09/26 11:22:08;;;;;;;0.65;0.10;;;;;;;30.27;33.30;99567.72;4944620;28;97776;-68
2022/09/26 11:24:58;;;;;;;0.80;0.10;;;;;;;29.34;33.68;99560.72;4928990;28;97880;-67
2022/09/26 11:27:47;;;;;;;0.32;0.10;;;;;;;29.63;32.77;99565.91;4938155;28;97671;-67
2022/09/26 11:30:19;;;;;;;0.90;0.13;;;;;;;31.50;29.98;99559.44;4929254;28;97485;-69
2022/09/26 11:32:55;;;;;;;0.35;0.10;;;;;;;32.29;30.01;99559.63;4920446;28;97302;-67
2022/09/26 11:35:42;;;;;;;0.20;0.10;;;;;;;32.62;29.63;99563.97;4911917;28;97791;-67
2022/09/26 11:38:22;;;;;;;1.92;0.10;;;;;;;32.71;29.72;99561.31;4948007;28;98194;-68
2022/09/26 11:41:36;;;;;;;0.55;0.10;;;;;;;32.89;29.72;99562.81;4952632;28;97562;-67
2022/09/26 11:44:38;;;;;;;0.32;0.10;;;;;;;32.15;30.53;99552.41;4924500;28;99280;-69
2022/09/26 11:47:35;;;;;;;0.28;0.00;;;;;;;30.21;32.02;99540.84;4936936;28;97521;-69
2022/09/26 11:50:34;;;;;;;0.32;0.00;;;;;;;28.52;33.54;99542.22;4946329;28;97610;-68
2022/09/26 11:53:39;;;;;;;0.30;0.10;;;;;;;29.09;32.54;99533.28;4942228;28;99566;-67
2022/09/26 11:56:20;;;;;;;0.38;0.10;;;;;;;30.00;31.65;99523.31;4947281;28;97527;-67
2022/09/26 11:59:16;;;;;;;0.68;0.10;;;;;;;29.83;31.53;99525.16;4947889;28;97567;-68
2022/09/26 12:02:00;;;;;;;1.05;0.10;;;;;;;30.05;31.41;99508.13;4921628;28;97777;-67
2022/09/26 12:04:50;;;;;;;1.00;0.03;;;;;;;29.81;31.98;99513.69;4945918;28;97959;-68
2022/09/26 12:07:21;;;;;;;0.32;0.10;;;;;;;29.44;31.67;99520.16;4951233;28;98293;-67
2022/09/26 12:10:28;;;;;;;0.30;0.08;;;;;;;29.28;32.09;99511.66;4948263;28;97895;-69
2022/09/26 12:13:33;;;;;;;0.73;0.00;;;;;;;28.95;32.38;99504.91;4956598;28;97484;-69
2022/09/26 12:16:34;;;;;;;0.55;0.03;;;;;;;28.60;32.63;99507.69;4942612;28;97972;-69
2022/09/26 12:19:16;;;;;;;0.28;0.00;;;;;;;28.31;32.13;99506.38;4943818;28;98058;-67
2022/09/26 12:24:48;;;;;;;1.67;0.00;;;;;;;26.97;33.61;99507.63;4942795;28;97186;-69
2022/09/26 12:27:35;;;;;;;0.20;0.00;;;;;;;26.92;33.25;99496.97;4905733;28;97695;-67